Time;durP1;ratioP1;P1;durP2;ratioP2;P2;SDS_P1;SDS_P2;PMS_P1;PMS_P2;Temp;Humidity;BMP_temperature;BMP_pressure;BME280_temperature;BME280_humidity;BME280_pressure;Samples;Min_cycle;Max_cycle;Signal;HPM_P1;HPM_P2
2022/11/24 00:00:32;;;;;;;21.00;4.37;;;10.30;99.90;;;;;;4897547;29;20539;-72
2022/11/24 00:02:59;;;;;;;10.63;5.07;;;10.30;99.90;;;;;;4897538;29;20180;-72
2022/11/24 00:05:24;;;;;;;17.30;2.67;;;10.30;99.90;;;;;;4897367;29;20582;-72
2022/11/24 00:07:50;;;;;;;11.63;3.40;;;10.40;99.90;;;;;;4897485;29;20424;-72
2022/11/24 00:10:16;;;;;;;16.97;4.10;;;10.40;99.90;;;;;;4897500;29;20180;-72
2022/11/24 00:12:41;;;;;;;15.30;4.07;;;10.30;99.90;;;;;;4897061;29;20320;-72
2022/11/24 00:15:07;;;;;;;11.57;4.53;;;10.30;99.90;;;;;;4897416;29;20184;-71
2022/11/24 00:17:33;;;;;;;11.47;3.40;;;10.30;99.90;;;;;;4897252;29;20184;-73
2022/11/24 00:19:58;;;;;;;13.40;3.47;;;10.30;99.90;;;;;;4897349;29;20775;-72
2022/11/24 00:22:24;;;;;;;14.40;4.53;;;10.30;99.90;;;;;;4897097;29;20188;-72
2022/11/24 00:24:49;;;;;;;8.17;3.57;;;10.30;99.90;;;;;;4897246;29;20517;-72
2022/11/24 00:27:15;;;;;;;15.67;4.97;;;10.30;99.90;;;;;;4897113;29;20173;-73
2022/11/24 00:29:41;;;;;;;15.17;5.80;;;10.30;99.90;;;;;;4896524;29;20186;-73
2022/11/24 00:32:06;;;;;;;10.90;3.57;;;10.30;99.90;;;;;;4897083;29;20356;-73
2022/11/24 00:34:32;;;;;;;15.80;4.30;;;10.30;99.90;;;;;;4897056;29;20252;-73
2022/11/24 00:36:58;;;;;;;27.90;6.23;;;10.20;99.90;;;;;;4897045;29;20357;-73
2022/11/24 00:39:23;;;;;;;12.60;3.87;;;10.20;99.90;;;;;;4896984;29;20417;-73
2022/11/24 00:41:49;;;;;;;13.63;3.27;;;10.20;99.90;;;;;;4897206;29;20263;-72
2022/11/24 00:44:14;;;;;;;12.50;3.13;;;10.30;99.90;;;;;;4896901;29;20635;-73
2022/11/24 00:46:40;;;;;;;12.87;3.50;;;10.20;99.90;;;;;;4897184;29;20184;-73
2022/11/24 00:49:06;;;;;;;14.10;2.90;;;10.10;99.90;;;;;;4890451;29;20554;-73
2022/11/24 00:51:31;;;;;;;15.87;3.30;;;10.10;99.90;;;;;;4878549;29;20590;-72
2022/11/24 00:53:58;;;;;;;10.10;3.57;;;10.20;99.90;;;;;;4879176;29;20238;-72
2022/11/24 00:56:25;;;;;;;14.50;3.23;;;10.20;99.90;;;;;;4878421;29;20181;-72
2022/11/24 00:58:51;;;;;;;14.17;3.43;;;10.30;99.90;;;;;;4879254;29;20469;-72
2022/11/24 01:01:19;;;;;;;21.63;3.87;;;10.30;99.90;;;;;;4879111;29;20438;-73
2022/11/24 01:03:48;;;;;;;13.20;2.90;;;10.30;99.90;;;;;;4879029;29;20426;-72
2022/11/24 01:06:16;;;;;;;10.60;3.40;;;10.20;99.90;;;;;;4879077;29;20884;-72
2022/11/24 01:08:42;;;;;;;13.10;4.43;;;10.20;99.90;;;;;;4879056;29;20427;-72
2022/11/24 01:11:13;;;;;;;9.00;3.23;;;10.20;99.90;;;;;;4879119;29;20485;-72
2022/11/24 01:13:40;;;;;;;12.87;3.33;;;10.20;99.90;;;;;;4862320;29;20452;-71
2022/11/24 01:16:12;;;;;;;10.20;3.30;;;10.20;99.90;;;;;;4879043;29;20460;-71
2022/11/24 01:18:37;;;;;;;13.33;3.57;;;10.20;99.90;;;;;;4879075;29;20929;-71
2022/11/24 01:21:04;;;;;;;7.03;2.70;;;10.20;99.90;;;;;;4878859;29;20524;-71
2022/11/24 01:23:29;;;;;;;10.70;3.60;;;10.20;99.90;;;;;;4878952;29;20185;-72
2022/11/24 01:25:55;;;;;;;20.63;3.83;;;10.20;99.90;;;;;;4878993;29;20436;-72
2022/11/24 01:28:20;;;;;;;15.80;3.90;;;10.30;99.90;;;;;;4878874;29;20637;-71
2022/11/24 01:30:56;;;;;;;11.57;3.60;;;10.20;99.90;;;;;;4878845;29;20186;-72
2022/11/24 05:31:33;;;;;;;8.87;4.07;;;9.90;99.90;;;;;;5402160;23;21012;-72
2022/11/24 05:33:59;;;;;;;15.60;3.20;;;9.90;99.90;;;;;;4901465;29;20449;-73
2022/11/24 05:39:09;;;;;;;18.63;4.27;;;9.80;99.90;;;;;;4900261;29;20341;-73
2022/11/24 05:41:34;;;;;;;15.07;4.10;;;9.90;99.90;;;;;;4899910;29;20713;-72
2022/11/24 05:44:00;;;;;;;18.60;4.60;;;10.00;99.90;;;;;;4899412;29;20181;-72
2022/11/24 05:46:25;;;;;;;13.40;4.00;;;9.90;99.90;;;;;;4899784;29;20236;-74
2022/11/24 05:48:51;;;;;;;20.10;3.33;;;10.00;99.90;;;;;;4899936;29;20204;-74
2022/11/24 05:51:16;;;;;;;13.20;3.80;;;10.10;99.90;;;;;;4898938;29;20228;-71
2022/11/24 05:53:42;;;;;;;10.83;3.40;;;10.20;99.90;;;;;;4899541;29;20236;-72
2022/11/24 05:56:08;;;;;;;14.33;3.33;;;10.20;99.90;;;;;;4899661;29;20180;-73
2022/11/24 05:58:33;;;;;;;17.17;5.60;;;10.20;99.90;;;;;;4899205;29;20208;-73
2022/11/24 06:00:59;;;;;;;15.83;4.50;;;10.20;99.90;;;;;;4882540;29;21223;-73
2022/11/24 06:03:24;;;;;;;18.00;4.00;;;10.20;99.90;;;;;;4878311;29;21364;-71
2022/11/24 06:05:50;;;;;;;16.70;3.90;;;10.20;99.90;;;;;;4895451;29;20658;-71
2022/11/24 06:08:15;;;;;;;12.40;3.53;;;10.20;99.90;;;;;;4899547;29;20228;-71
2022/11/24 06:10:41;;;;;;;11.60;3.10;;;10.30;99.90;;;;;;4882664;29;20611;-71
2022/11/24 06:13:07;;;;;;;35.87;5.73;;;10.30;99.90;;;;;;4882558;29;20629;-71
2022/11/24 06:15:33;;;;;;;12.23;4.30;;;10.30;99.90;;;;;;4898989;29;20196;-72
2022/11/24 06:17:59;;;;;;;10.77;3.40;;;10.30;99.90;;;;;;4898729;29;20493;-71
2022/11/24 06:20:25;;;;;;;18.67;4.23;;;10.40;99.90;;;;;;4899175;29;20824;-71
2022/11/24 06:22:51;;;;;;;13.97;4.30;;;10.40;99.90;;;;;;4899576;29;20183;-71
2022/11/24 06:25:17;;;;;;;15.47;4.80;;;10.40;99.90;;;;;;4899207;29;20779;-72
2022/11/24 06:27:43;;;;;;;18.93;3.90;;;10.40;99.90;;;;;;4898332;29;20428;-71
2022/11/24 06:30:10;;;;;;;19.87;4.70;;;10.40;99.90;;;;;;4899402;29;20208;-71
2022/11/24 06:32:35;;;;;;;10.30;4.17;;;10.50;99.90;;;;;;4898215;29;20499;-71
2022/11/24 06:35:01;;;;;;;13.57;4.43;;;10.50;99.90;;;;;;4899108;29;20428;-71
2022/11/24 06:37:27;;;;;;;30.23;5.60;;;10.50;99.90;;;;;;4898149;29;20176;-71
2022/11/24 06:39:52;;;;;;;13.10;4.43;;;10.50;99.90;;;;;;4895691;29;20188;-72
2022/11/24 06:42:18;;;;;;;13.63;3.37;;;10.50;99.90;;;;;;4894446;29;20185;-72
2022/11/24 06:44:46;;;;;;;17.73;5.23;;;10.60;99.90;;;;;;4898475;29;20180;-72
2022/11/24 06:47:13;;;;;;;11.67;3.83;;;10.70;99.90;;;;;;4898164;29;20184;-72
2022/11/24 06:49:39;;;;;;;19.53;4.30;;;10.70;99.90;;;;;;4899454;29;20786;-71
2022/11/24 06:52:04;;;;;;;11.57;4.67;;;10.60;99.90;;;;;;4899317;29;20592;-71
2022/11/24 06:54:30;;;;;;;14.37;5.03;;;10.60;99.90;;;;;;4899791;29;20541;-72
2022/11/24 06:56:57;;;;;;;10.60;4.63;;;10.60;99.90;;;;;;4899767;29;20181;-72
2022/11/24 06:59:23;;;;;;;15.63;4.20;;;10.60;99.90;;;;;;4899359;29;20180;-72
2022/11/24 07:01:48;;;;;;;12.50;3.70;;;10.70;99.90;;;;;;4897202;29;20436;-71
2022/11/24 07:04:14;;;;;;;12.97;4.13;;;10.70;99.90;;;;;;4892309;29;20176;-73
2022/11/24 07:06:40;;;;;;;15.10;4.10;;;10.70;99.90;;;;;;4876558;29;20192;-72
2022/11/24 07:09:08;;;;;;;19.20;4.17;;;10.60;99.90;;;;;;4887811;29;20440;-73
2022/11/24 07:11:34;;;;;;;16.40;4.67;;;10.70;99.90;;;;;;4889913;29;20579;-73
2022/11/24 07:13:59;;;;;;;17.93;4.47;;;10.70;99.90;;;;;;4890847;29;20444;-75
2022/11/24 07:16:25;;;;;;;17.87;3.87;;;10.60;99.90;;;;;;4898185;29;20447;-72
2022/11/24 07:18:52;;;;;;;18.77;6.37;;;10.70;99.90;;;;;;4898004;29;20641;-72
2022/11/24 07:21:19;;;;;;;12.00;4.60;;;10.60;99.90;;;;;;4898352;29;20788;-72
2022/11/24 07:23:54;;;;;;;14.63;3.70;;;10.70;99.90;;;;;;4886939;29;20446;-72
2022/11/24 07:26:21;;;;;;;14.43;4.27;;;10.70;99.90;;;;;;4879042;29;20448;-72
2022/11/24 07:28:47;;;;;;;20.13;3.50;;;10.70;99.90;;;;;;4884766;29;20816;-72
2022/11/24 07:31:16;;;;;;;11.70;3.40;;;10.70;99.90;;;;;;4886825;29;21023;-72
2022/11/24 07:33:41;;;;;;;7.97;3.00;;;10.70;99.90;;;;;;4888500;29;20952;-71
2022/11/24 07:36:08;;;;;;;13.20;2.80;;;10.80;99.90;;;;;;4889201;29;20468;-70
2022/11/24 07:38:34;;;;;;;8.47;3.77;;;10.80;99.90;;;;;;4888568;29;20632;-69
2022/11/24 07:41:08;;;;;;;11.87;3.40;;;10.80;99.90;;;;;;4887584;29;20460;-70
2022/11/24 07:43:36;;;;;;;9.23;3.27;;;10.80;99.90;;;;;;4887326;29;20440;-72
2022/11/24 07:46:02;;;;;;;9.13;2.67;;;10.80;99.90;;;;;;4886505;29;20812;-71
2022/11/24 07:48:28;;;;;;;11.57;2.90;;;10.80;99.90;;;;;;4879096;29;20445;-71
2022/11/24 07:50:53;;;;;;;7.33;2.30;;;10.80;99.90;;;;;;4879112;29;20177;-72
2022/11/24 07:53:19;;;;;;;9.50;3.43;;;10.80;99.90;;;;;;4879111;29;20450;-72
2022/11/24 07:55:53;;;;;;;11.17;3.50;;;10.90;99.90;;;;;;4878901;29;20645;-72
2022/11/24 07:58:19;;;;;;;6.87;2.77;;;10.90;99.90;;;;;;4884579;29;21782;-71
2022/11/24 08:00:44;;;;;;;14.17;4.10;;;10.80;99.90;;;;;;4883879;29;20445;-71
2022/11/24 08:03:10;;;;;;;3.97;2.10;;;10.90;99.90;;;;;;4879511;29;20672;-72
2022/11/24 08:05:35;;;;;;;8.20;2.37;;;10.80;99.90;;;;;;4889918;29;20195;-71
2022/11/24 08:08:01;;;;;;;8.20;2.63;;;10.80;99.90;;;;;;4894124;29;20184;-72
2022/11/24 08:10:26;;;;;;;10.13;2.33;;;10.80;99.90;;;;;;4916341;29;20179;-72
2022/11/24 08:12:52;;;;;;;6.00;2.40;;;10.80;99.90;;;;;;4899479;29;20219;-72
2022/11/24 08:15:17;;;;;;;8.27;2.60;;;10.90;99.90;;;;;;4916134;29;20694;-72
2022/11/24 08:17:43;;;;;;;7.87;2.13;;;11.00;99.90;;;;;;4910749;29;20186;-72
2022/11/24 08:20:09;;;;;;;4.60;1.80;;;11.10;99.90;;;;;;4886172;29;20652;-72
2022/11/24 08:22:34;;;;;;;6.67;2.73;;;11.00;99.90;;;;;;4878690;29;20268;-72
2022/11/24 08:25:00;;;;;;;7.17;1.90;;;10.90;99.90;;;;;;4878394;29;20466;-72
2022/11/24 08:27:25;;;;;;;2.70;1.70;;;10.80;99.90;;;;;;4881599;29;20180;-72
2022/11/24 08:29:51;;;;;;;9.50;1.83;;;10.80;99.90;;;;;;4885699;29;20184;-72
2022/11/24 08:32:16;;;;;;;5.30;1.67;;;10.80;99.90;;;;;;4887229;29;20577;-71
2022/11/24 08:34:42;;;;;;;6.47;2.23;;;10.80;99.90;;;;;;4892264;29;20173;-71
2022/11/24 08:37:07;;;;;;;6.00;1.73;;;10.80;99.90;;;;;;4896569;29;20532;-71
2022/11/24 08:39:33;;;;;;;8.33;2.03;;;10.80;99.90;;;;;;4897004;29;20665;-72
2022/11/24 08:41:59;;;;;;;3.07;1.60;;;10.80;99.90;;;;;;4896487;29;20224;-72
2022/11/24 08:44:27;;;;;;;4.17;1.60;;;10.90;99.90;;;;;;4896815;29;20185;-72
2022/11/24 08:46:53;;;;;;;4.53;2.53;;;10.80;99.90;;;;;;4896888;29;20226;-71
2022/11/24 08:49:20;;;;;;;6.83;1.83;;;10.70;99.90;;;;;;4897717;29;20432;-71
2022/11/24 08:51:47;;;;;;;3.37;1.93;;;10.70;99.90;;;;;;4885854;29;20986;-71
2022/11/24 08:54:14;;;;;;;5.50;1.40;;;10.80;99.90;;;;;;4892316;29;20792;-71
2022/11/24 08:56:40;;;;;;;5.13;1.77;;;10.80;99.90;;;;;;4894407;29;21015;-71
2022/11/24 08:59:06;;;;;;;6.50;1.53;;;10.80;99.90;;;;;;4897962;29;20432;-71
2022/11/24 09:01:31;;;;;;;3.53;1.83;;;10.70;99.90;;;;;;4895010;29;20460;-70
2022/11/24 09:03:57;;;;;;;2.57;1.10;;;10.80;99.90;;;;;;4894129;29;20267;-71
2022/11/24 09:06:25;;;;;;;5.03;1.77;;;10.90;99.90;;;;;;4894238;29;20183;-70
2022/11/24 09:08:53;;;;;;;3.53;1.60;;;10.90;99.90;;;;;;4894032;29;20271;-70
2022/11/24 09:11:19;;;;;;;4.40;1.60;;;10.90;99.90;;;;;;4891532;29;20469;-70
2022/11/24 09:13:44;;;;;;;3.20;1.17;;;10.80;99.90;;;;;;4889205;29;20468;-70
2022/11/24 09:16:15;;;;;;;6.93;1.63;;;10.90;99.90;;;;;;4897712;29;20444;-70
2022/11/24 09:18:41;;;;;;;7.20;1.77;;;10.80;99.90;;;;;;4902349;29;20259;-70
2022/11/24 09:21:13;;;;;;;4.00;1.90;;;10.90;99.90;;;;;;4903670;29;20436;-70
2022/11/24 09:23:39;;;;;;;4.43;1.60;;;10.90;99.90;;;;;;4903756;29;20428;-70
2022/11/24 09:26:07;;;;;;;6.90;2.50;;;10.80;99.90;;;;;;4903706;29;21011;-70
2022/11/24 09:28:33;;;;;;;5.23;1.87;;;10.80;99.90;;;;;;4903899;29;20420;-70
2022/11/24 09:31:03;;;;;;;7.50;2.00;;;10.80;99.90;;;;;;4903615;29;20479;-70
2022/11/24 09:33:30;;;;;;;2.30;1.37;;;10.70;99.90;;;;;;4903872;29;20204;-70
2022/11/24 09:35:56;;;;;;;5.83;1.77;;;10.70;99.90;;;;;;4903893;29;20830;-71
2022/11/24 09:38:22;;;;;;;6.20;2.20;;;10.70;99.90;;;;;;4903883;29;20479;-71
2022/11/24 09:40:48;;;;;;;3.90;2.10;;;10.70;99.90;;;;;;4903587;29;20191;-71
2022/11/24 09:43:43;;;;;;;5.10;2.10;;;10.70;99.90;;;;;;4903819;29;20699;-71
2022/11/24 09:46:17;;;;;;;7.17;2.53;;;10.70;99.90;;;;;;4903919;29;20428;-71
2022/11/24 09:48:47;;;;;;;3.73;1.20;;;10.70;99.90;;;;;;4903751;29;20581;-71
2022/11/24 09:51:14;;;;;;;45.70;6.33;;;10.70;99.90;;;;;;4903650;29;20468;-74
2022/11/24 09:53:49;;;;;;;9.63;2.43;;;10.70;99.90;;;;;;4903610;29;20837;-73
2022/11/24 09:56:23;;;;;;;12.40;3.63;;;10.80;99.90;;;;;;4903041;29;20511;-73
2022/11/24 09:59:01;;;;;;;9.00;2.03;;;10.90;99.90;;;;;;4886246;29;20446;-73
2022/11/24 10:01:33;;;;;;;7.13;2.13;;;10.80;99.90;;;;;;4902077;29;20440;-73
2022/11/24 10:04:00;;;;;;;8.77;2.20;;;10.80;99.90;;;;;;4900618;29;20785;-73
2022/11/24 10:06:30;;;;;;;6.50;2.10;;;10.80;99.90;;;;;;4900108;29;20429;-73
2022/11/24 10:09:13;;;;;;;6.30;2.60;;;10.70;99.90;;;;;;4890074;29;20433;-73
2022/11/24 10:11:42;;;;;;;9.97;2.47;;;10.80;99.90;;;;;;4890516;29;20480;-73
2022/11/24 10:14:30;;;;;;;6.20;2.07;;;10.90;99.90;;;;;;4887345;29;20432;-72
2022/11/24 10:17:27;;;;;;;13.10;2.93;;;10.80;99.90;;;;;;4891439;29;20912;-74
2022/11/24 10:20:21;;;;;;;8.63;2.80;;;10.90;99.90;;;;;;4878669;29;20500;-74
2022/11/24 10:22:52;;;;;;;12.37;3.10;;;10.80;99.90;;;;;;4885385;29;20486;-74
2022/11/24 10:25:21;;;;;;;4.57;2.40;;;10.80;99.90;;;;;;4891440;29;20444;-71
2022/11/24 10:28:02;;;;;;;12.10;3.70;;;10.80;99.90;;;;;;4891616;29;20441;-71
2022/11/24 10:30:28;;;;;;;9.03;3.77;;;10.90;99.90;;;;;;4891129;29;20795;-72
2022/11/24 10:32:56;;;;;;;8.17;2.90;;;10.90;99.90;;;;;;4889626;29;20504;-71
2022/11/24 10:35:46;;;;;;;5.10;3.60;;;10.80;99.90;;;;;;4891496;29;20477;-71
2022/11/24 10:38:20;;;;;;;10.60;3.07;;;10.80;99.90;;;;;;4891428;29;20446;-71
2022/11/24 10:40:46;;;;;;;12.73;3.57;;;10.90;99.90;;;;;;4888290;29;20447;-70
2022/11/24 10:43:12;;;;;;;14.93;2.97;;;11.00;99.90;;;;;;4891736;29;20805;-71
2022/11/24 10:45:38;;;;;;;213.47;132.80;;;11.00;99.90;;;;;;4881075;29;20525;-70
2022/11/24 10:48:17;;;;;;;92.53;61.17;;;11.10;99.90;;;;;;4886145;29;20193;-70
2022/11/24 10:50:43;;;;;;;23.20;14.40;;;11.10;99.90;;;;;;4891087;29;20449;-69
2022/11/24 10:53:21;;;;;;;11.93;5.10;;;11.10;99.90;;;;;;4889051;29;20592;-69
2022/11/24 10:55:55;;;;;;;13.37;4.30;;;11.10;99.90;;;;;;4886132;29;20263;-69
2022/11/24 10:58:37;;;;;;;17.90;3.50;;;11.10;99.90;;;;;;4895767;29;20451;-69
2022/11/24 11:01:12;;;;;;;8.70;3.40;;;11.10;99.90;;;;;;4899237;29;20433;-69
2022/11/24 11:03:53;;;;;;;9.40;3.77;;;11.20;99.90;;;;;;4899572;29;20427;-75
2022/11/24 11:06:27;;;;;;;13.90;3.23;;;11.00;99.90;;;;;;4898429;29;20831;-74
2022/11/24 11:09:12;;;;;;;12.77;4.20;;;11.00;99.90;;;;;;4898653;29;20445;-74
2022/11/24 11:11:38;;;;;;;10.30;3.77;;;11.00;99.90;;;;;;4898478;29;20464;-75
2022/11/24 11:14:06;;;;;;;10.90;3.37;;;11.00;99.90;;;;;;4897857;29;20987;-76
2022/11/24 11:16:50;;;;;;;12.57;3.63;;;11.10;99.90;;;;;;4881541;29;20520;-76
2022/11/24 11:19:36;;;;;;;10.17;3.67;;;11.10;99.90;;;;;;4898521;29;20432;-75
2022/11/24 11:22:10;;;;;;;10.00;4.57;;;11.20;99.90;;;;;;4898373;29;20424;-73
2022/11/24 11:24:38;;;;;;;10.33;3.87;;;11.40;99.90;;;;;;4898468;29;20453;-74
2022/11/24 11:27:18;;;;;;;11.87;3.30;;;11.50;99.90;;;;;;4898368;29;20489;-74
2022/11/24 11:29:44;;;;;;;9.27;3.50;;;11.60;99.90;;;;;;4898370;29;20495;-74
2022/11/24 11:32:22;;;;;;;9.27;4.20;;;11.60;99.90;;;;;;4897794;29;20528;-74
2022/11/24 11:34:50;;;;;;;8.90;3.30;;;11.60;99.90;;;;;;4898109;29;20554;-75
2022/11/24 11:37:17;;;;;;;11.63;2.90;;;11.60;99.90;;;;;;4897710;29;20452;-72
2022/11/24 11:39:46;;;;;;;6.53;3.43;;;11.60;99.90;;;;;;4897849;29;20857;-73
2022/11/24 11:42:28;;;;;;;10.10;3.10;;;11.60;99.90;;;;;;4891889;29;20473;-73
2022/11/24 11:44:56;;;;;;;10.30;3.97;;;11.70;99.90;;;;;;4885954;29;20448;-72
2022/11/24 11:47:47;;;;;;;13.10;2.70;;;11.60;99.90;;;;;;4889689;29;20782;-73
2022/11/24 11:50:15;;;;;;;11.80;3.20;;;11.70;99.90;;;;;;4887836;29;20465;-73
2022/11/24 11:53:03;;;;;;;8.83;2.73;;;11.90;99.90;;;;;;4887185;29;20493;-73
2022/11/24 11:55:44;;;;;;;7.47;3.77;;;11.90;99.90;;;;;;4875461;29;20924;-72
2022/11/24 11:58:25;;;;;;;8.47;2.63;;;11.90;99.90;;;;;;4887952;29;20859;-72
2022/11/24 12:01:14;;;;;;;31.57;4.47;;;11.90;99.90;;;;;;4897527;29;20797;-74
2022/11/24 12:04:13;;;;;;;14.93;4.43;;;11.90;99.90;;;;;;4897478;29;20443;-74
2022/11/24 12:06:54;;;;;;;9.73;3.07;;;11.80;99.90;;;;;;4897210;29;20531;-74
2022/11/24 12:09:40;;;;;;;7.83;2.60;;;11.80;99.90;;;;;;4897494;29;20437;-73
2022/11/24 12:12:36;;;;;;;7.63;3.40;;;11.80;99.90;;;;;;4897395;29;20484;-73
2022/11/24 12:15:29;;;;;;;10.70;3.50;;;11.80;99.90;;;;;;4897528;29;20437;-74
2022/11/24 12:18:06;;;;;;;7.80;2.40;;;11.90;99.90;;;;;;4897457;29;20921;-74
2022/11/24 12:20:47;;;;;;;12.97;3.20;;;11.90;99.90;;;;;;4889764;29;20442;-75
2022/11/24 12:23:38;;;;;;;11.60;3.33;;;11.90;99.90;;;;;;4883564;29;20514;-75
2022/11/24 12:26:23;;;;;;;13.80;3.97;;;11.80;99.90;;;;;;4877962;29;20462;-74
2022/11/24 12:29:23;;;;;;;6.93;3.43;;;11.90;99.90;;;;;;4878406;29;20567;-80
2022/11/24 12:32:11;;;;;;;9.80;3.27;;;11.90;99.90;;;;;;4878427;29;20973;-80
2022/11/24 12:34:58;;;;;;;11.90;3.30;;;11.90;99.90;;;;;;4854201;29;20494;-79
2022/11/24 12:37:57;;;;;;;13.20;3.87;;;12.00;99.90;;;;;;4878476;29;20514;-78
2022/11/24 12:40:35;;;;;;;9.40;2.83;;;11.90;99.90;;;;;;4880958;29;20536;-73
2022/11/24 12:43:35;;;;;;;8.77;2.60;;;11.90;99.90;;;;;;4897179;29;20438;-72
2022/11/24 12:46:18;;;;;;;13.90;3.40;;;12.00;99.90;;;;;;4883051;29;20455;-73
2022/11/24 12:49:02;;;;;;;12.60;3.10;;;12.00;99.90;;;;;;4896710;29;20473;-73
2022/11/24 12:51:44;;;;;;;8.93;2.57;;;12.10;99.90;;;;;;4896765;29;20475;-73
2022/11/24 12:54:17;;;;;;;10.87;2.90;;;12.20;99.90;;;;;;4896821;29;21078;-73
2022/11/24 12:56:58;;;;;;;10.20;4.40;;;12.30;99.90;;;;;;4896991;29;20413;-73
2022/11/24 12:59:32;;;;;;;6.73;2.77;;;12.30;99.90;;;;;;4896816;29;20837;-72
2022/11/24 13:02:29;;;;;;;7.90;3.27;;;12.50;99.90;;;;;;4896989;29;20473;-73
2022/11/24 13:05:12;;;;;;;5.60;2.63;;;12.50;99.90;;;;;;4893039;29;20463;-72
2022/11/24 13:07:43;;;;;;;11.20;3.63;;;12.50;99.90;;;;;;4897551;29;20800;-71
2022/11/24 13:10:24;;;;;;;9.10;3.00;;;12.40;99.90;;;;;;4897584;29;20541;-71
2022/11/24 13:13:03;;;;;;;15.17;3.90;;;12.40;99.90;;;;;;4897710;29;20478;-72
2022/11/24 13:15:30;;;;;;;12.47;3.70;;;12.30;99.90;;;;;;4897673;29;20497;-73
2022/11/24 13:17:57;;;;;;;9.00;3.03;;;12.40;99.90;;;;;;4897052;29;20433;-73
2022/11/24 13:20:29;;;;;;;8.57;2.80;;;12.40;99.90;;;;;;4880988;29;20789;-73
2022/11/24 13:23:01;;;;;;;11.00;3.80;;;12.40;99.90;;;;;;4897663;29;20813;-73
2022/11/24 13:25:34;;;;;;;18.20;4.30;;;12.40;99.90;;;;;;4897666;29;20436;-74
2022/11/24 13:28:01;;;;;;;14.53;3.73;;;12.40;99.90;;;;;;4897715;29;20420;-73
2022/11/24 13:30:33;;;;;;;10.87;3.20;;;12.40;99.90;;;;;;4897356;29;20432;-73
2022/11/24 13:33:10;;;;;;;5.83;2.47;;;12.50;99.90;;;;;;4897437;29;20492;-73
2022/11/24 13:35:37;;;;;;;14.70;2.53;;;12.60;99.90;;;;;;4897870;29;20441;-74
2022/11/24 13:38:38;;;;;;;8.70;3.90;;;12.70;99.90;;;;;;4901147;29;20424;-74
2022/11/24 13:41:03;;;;;;;9.27;3.03;;;12.70;99.90;;;;;;4901159;29;20947;-73
2022/11/24 13:43:29;;;;;;;10.03;2.40;;;12.70;99.90;;;;;;4900970;29;20424;-73
2022/11/24 13:45:54;;;;;;;10.33;3.00;;;12.70;99.90;;;;;;4901007;29;20185;-74
2022/11/24 13:48:20;;;;;;;7.67;3.60;;;12.70;99.90;;;;;;4900862;29;20180;-74
2022/11/24 13:50:48;;;;;;;12.87;3.47;;;12.70;99.90;;;;;;4900918;29;20184;-74
2022/11/24 13:53:22;;;;;;;14.30;3.40;;;12.70;99.90;;;;;;4900346;29;20247;-73
2022/11/24 13:55:56;;;;;;;13.23;4.30;;;12.70;99.90;;;;;;4900384;29;20432;-74
2022/11/24 13:58:39;;;;;;;10.60;3.03;;;12.70;99.90;;;;;;4900863;29;20787;-73
2022/11/24 14:01:22;;;;;;;8.93;3.40;;;12.60;99.90;;;;;;4900709;29;20435;-73
2022/11/24 14:04:13;;;;;;;13.30;3.10;;;12.50;99.90;;;;;;4900597;29;20512;-74
2022/11/24 14:06:42;;;;;;;7.23;2.83;;;12.50;99.90;;;;;;4900572;29;20444;-74
2022/11/24 14:09:44;;;;;;;11.97;3.70;;;12.50;99.90;;;;;;4900592;29;20947;-73
2022/11/24 14:12:15;;;;;;;14.47;2.67;;;12.40;99.90;;;;;;4895556;29;20484;-74
2022/11/24 14:14:43;;;;;;;16.13;4.20;;;12.40;99.90;;;;;;4900399;29;20429;-74
2022/11/24 14:17:18;;;;;;;17.40;3.20;;;12.40;99.90;;;;;;4900387;29;20523;-73
2022/11/24 14:19:49;;;;;;;16.90;3.40;;;12.30;99.90;;;;;;4900426;29;20532;-75
2022/11/24 14:22:42;;;;;;;13.70;3.53;;;12.30;99.90;;;;;;4900365;29;20436;-74
2022/11/24 14:25:29;;;;;;;11.53;2.93;;;12.30;99.90;;;;;;4897526;29;20445;-74
2022/11/24 14:27:55;;;;;;;15.73;2.70;;;12.30;99.90;;;;;;4899620;29;20785;-74
2022/11/24 14:30:23;;;;;;;12.03;3.50;;;12.30;99.90;;;;;;4902232;29;20484;-74
2022/11/24 14:33:01;;;;;;;10.13;2.60;;;12.30;99.90;;;;;;4918781;29;20472;-75
2022/11/24 14:35:34;;;;;;;7.27;3.10;;;12.30;99.90;;;;;;4901702;29;20931;-74
2022/11/24 14:38:04;;;;;;;7.70;2.37;;;12.30;99.90;;;;;;4918596;29;20531;-72
2022/11/24 14:40:51;;;;;;;10.53;3.20;;;12.30;99.90;;;;;;4918300;29;20428;-72
2022/11/24 14:43:31;;;;;;;10.63;3.83;;;12.40;99.90;;;;;;4918660;29;20432;-75
2022/11/24 14:46:00;;;;;;;14.33;3.63;;;12.30;99.90;;;;;;4918448;29;20432;-74
2022/11/24 14:48:34;;;;;;;19.37;3.10;;;12.30;99.90;;;;;;4917657;29;20792;-75
2022/11/24 14:51:24;;;;;;;14.70;3.10;;;12.30;99.90;;;;;;4918487;29;20434;-74
2022/11/24 14:53:52;;;;;;;16.33;4.43;;;12.20;99.90;;;;;;4892547;29;20509;-73
2022/11/24 14:56:24;;;;;;;14.47;3.53;;;12.10;99.90;;;;;;4899810;29;20773;-75
2022/11/24 14:58:50;;;;;;;14.97;3.67;;;12.10;99.90;;;;;;4898070;29;20967;-73
2022/11/24 15:01:22;;;;;;;9.33;3.03;;;12.10;99.90;;;;;;4899372;29;20523;-73
2022/11/24 15:04:24;;;;;;;14.50;3.80;;;12.00;99.90;;;;;;4899000;29;20425;-73
2022/11/24 15:07:12;;;;;;;13.77;3.73;;;12.00;99.90;;;;;;4899445;29;20432;-73
2022/11/24 15:09:46;;;;;;;13.20;3.73;;;11.90;99.90;;;;;;4899049;29;20429;-73
2022/11/24 15:12:18;;;;;;;13.57;3.57;;;11.90;99.90;;;;;;4898814;29;20496;-74
2022/11/24 15:14:50;;;;;;;11.90;3.43;;;11.90;99.90;;;;;;4899577;29;20428;-74
2022/11/24 15:17:18;;;;;;;18.20;4.90;;;11.90;99.90;;;;;;4899303;29;20916;-73
2022/11/24 15:19:54;;;;;;;20.13;5.60;;;11.80;99.90;;;;;;4899132;29;20959;-73
2022/11/24 15:22:35;;;;;;;13.63;3.23;;;11.80;99.90;;;;;;4899288;29;20505;-73
2022/11/24 15:25:02;;;;;;;13.57;3.87;;;11.70;99.90;;;;;;4899342;29;20460;-73
2022/11/24 15:27:27;;;;;;;14.47;3.37;;;11.60;99.90;;;;;;4899091;29;20435;-73
2022/11/24 15:29:53;;;;;;;17.17;4.90;;;11.60;99.90;;;;;;4899244;29;20433;-73
2022/11/24 15:32:18;;;;;;;12.37;4.50;;;11.50;99.90;;;;;;4898677;29;20239;-73
2022/11/24 15:34:44;;;;;;;10.47;3.47;;;11.50;99.90;;;;;;4898511;29;20184;-73
2022/11/24 15:37:10;;;;;;;14.13;6.33;;;11.40;99.90;;;;;;4898847;29;20177;-73
2022/11/24 15:39:35;;;;;;;12.90;4.43;;;11.40;99.90;;;;;;4898956;29;20184;-73
2022/11/24 15:42:01;;;;;;;16.00;5.10;;;11.30;99.90;;;;;;4898887;29;20625;-73
2022/11/24 15:44:26;;;;;;;22.77;4.93;;;11.30;99.90;;;;;;4898269;29;20184;-73
2022/11/24 15:46:54;;;;;;;9.83;4.13;;;11.30;99.90;;;;;;4898569;29;20187;-73
2022/11/24 15:49:19;;;;;;;18.40;6.37;;;11.20;99.90;;;;;;4898664;29;20186;-73
2022/11/24 15:51:46;;;;;;;11.40;5.10;;;11.20;99.90;;;;;;4898518;29;20853;-73
2022/11/24 15:54:15;;;;;;;11.40;4.77;;;11.10;99.90;;;;;;4898251;29;20180;-73
2022/11/24 15:56:41;;;;;;;15.17;5.20;;;11.10;99.90;;;;;;4898661;29;20433;-73
2022/11/24 15:59:14;;;;;;;17.97;4.47;;;11.10;99.90;;;;;;4897755;29;20416;-73
2022/11/24 16:01:41;;;;;;;13.77;5.97;;;11.00;99.90;;;;;;4898703;29;20177;-73
2022/11/24 16:04:07;;;;;;;20.63;6.60;;;11.00;99.90;;;;;;4898425;29;20447;-73
2022/11/24 16:06:32;;;;;;;29.00;12.67;;;10.90;99.90;;;;;;4897856;29;20798;-73
2022/11/24 16:08:58;;;;;;;18.73;8.60;;;10.80;99.90;;;;;;4898290;29;20581;-73
2022/11/24 16:11:23;;;;;;;15.93;5.23;;;10.80;99.90;;;;;;4881617;29;20208;-73
2022/11/24 16:13:49;;;;;;;11.97;5.00;;;10.80;99.90;;;;;;4898522;29;20271;-73
2022/11/24 16:16:15;;;;;;;16.80;5.07;;;10.80;99.90;;;;;;4898427;29;20183;-73
2022/11/24 16:18:40;;;;;;;9.37;4.00;;;10.70;99.90;;;;;;4898135;29;20429;-73
2022/11/24 16:21:07;;;;;;;11.90;5.90;;;10.70;99.90;;;;;;4898360;29;20173;-73
2022/11/24 16:23:34;;;;;;;16.13;4.30;;;10.60;99.90;;;;;;4898168;29;20219;-73
2022/11/24 16:26:01;;;;;;;10.23;4.00;;;10.60;99.90;;;;;;4898118;29;20503;-73
2022/11/24 16:28:26;;;;;;;12.10;5.10;;;10.60;99.90;;;;;;4897506;29;20447;-73
2022/11/24 16:30:52;;;;;;;15.97;4.93;;;10.50;99.90;;;;;;4897222;29;20464;-73
2022/11/24 16:33:17;;;;;;;11.27;5.13;;;10.50;99.90;;;;;;4898110;29;20216;-73
2022/11/24 16:35:47;;;;;;;15.13;5.00;;;10.50;99.90;;;;;;4898274;29;20184;-73
2022/11/24 16:38:18;;;;;;;18.20;5.77;;;10.50;99.90;;;;;;4897938;29;20176;-73
2022/11/24 16:40:49;;;;;;;19.30;5.00;;;10.40;99.90;;;;;;4897894;29;20428;-73
2022/11/24 16:43:14;;;;;;;16.53;6.43;;;10.40;99.90;;;;;;4897606;29;20443;-73
2022/11/24 16:45:40;;;;;;;15.60;5.43;;;10.40;99.90;;;;;;4897758;29;20440;-73
2022/11/24 16:48:05;;;;;;;22.57;6.93;;;10.30;99.90;;;;;;4897791;29;20177;-73
2022/11/24 16:50:31;;;;;;;16.53;5.40;;;10.30;99.90;;;;;;4896888;29;20794;-73
2022/11/24 16:52:56;;;;;;;13.47;5.97;;;10.30;99.90;;;;;;4896572;29;20623;-73
2022/11/24 16:55:22;;;;;;;13.93;4.53;;;10.20;99.90;;;;;;4898206;29;20208;-73
2022/11/24 16:57:47;;;;;;;19.37;5.27;;;10.20;99.90;;;;;;4898057;29;20593;-73
2022/11/24 17:00:14;;;;;;;15.90;6.00;;;10.10;99.90;;;;;;4897708;29;20267;-73